Time;durP1;ratioP1;P1;durP2;ratioP2;P2;SDS_P1;SDS_P2;PMS_P1;PMS_P2;Temp;Humidity;BMP_temperature;BMP_pressure;BME280_temperature;BME280_humidity;BME280_pressure;Samples;Min_cycle;Max_cycle;Signal;HPM_P1;HPM_P2
2023/05/19 00:01:31;;;;;;;8.95;1.90;;;10.60;95.90;;;;;;4979705;28;20037;-66
2023/05/19 00:04:01;;;;;;;6.90;1.75;;;10.60;96.20;;;;;;4979688;28;20066;-65
2023/05/19 00:06:30;;;;;;;5.10;1.23;;;10.60;96.20;;;;;;4979452;28;20034;-65
2023/05/19 00:09:07;;;;;;;7.28;2.05;;;10.50;96.30;;;;;;4976961;28;20153;-65
2023/05/19 00:11:35;;;;;;;8.05;2.15;;;10.50;96.30;;;;;;4977138;28;20866;-65
2023/05/19 00:14:03;;;;;;;4.40;1.52;;;10.50;96.20;;;;;;4979624;28;20038;-66
2023/05/19 00:16:29;;;;;;;6.68;1.70;;;10.50;96.30;;;;;;4977772;28;20533;-65
2023/05/19 00:18:59;;;;;;;3.17;1.30;;;10.40;96.30;;;;;;4976661;28;20038;-65
2023/05/19 00:21:26;;;;;;;4.75;1.83;;;10.30;96.40;;;;;;4975095;28;20499;-65
2023/05/19 00:23:52;;;;;;;4.15;1.65;;;10.30;96.30;;;;;;4979528;28;20050;-65
2023/05/19 00:26:18;;;;;;;8.15;2.25;;;10.30;96.40;;;;;;4963117;28;20042;-65
2023/05/19 00:28:54;;;;;;;3.73;1.37;;;10.30;96.50;;;;;;4977805;28;20073;-65
2023/05/19 00:31:20;;;;;;;5.13;1.95;;;10.30;96.50;;;;;;4975083;28;20035;-65
2023/05/19 00:33:46;;;;;;;5.78;1.67;;;10.30;96.60;;;;;;4976390;28;20030;-65
2023/05/19 00:36:11;;;;;;;4.72;1.85;;;10.30;96.60;;;;;;4956653;28;20408;-65
2023/05/19 00:38:38;;;;;;;3.25;1.58;;;10.30;96.30;;;;;;4973357;28;20031;-66
2023/05/19 00:41:05;;;;;;;4.45;1.40;;;10.20;96.40;;;;;;4959083;28;20109;-65
2023/05/19 00:43:33;;;;;;;2.63;1.20;;;10.20;96.60;;;;;;4955903;28;20030;-66
2023/05/19 00:45:59;;;;;;;4.78;1.58;;;10.20;96.80;;;;;;4975967;28;20073;-65
2023/05/19 00:48:25;;;;;;;6.95;1.80;;;10.20;96.70;;;;;;4961658;28;20035;-66
2023/05/19 00:50:53;;;;;;;5.30;1.35;;;10.20;96.70;;;;;;4956650;28;20038;-65
2023/05/19 00:53:20;;;;;;;4.60;1.48;;;10.10;96.80;;;;;;4966162;28;20506;-65
2023/05/19 00:55:47;;;;;;;2.95;1.48;;;10.10;96.80;;;;;;4973685;28;20540;-65
2023/05/19 00:58:13;;;;;;;3.80;1.50;;;10.00;97.10;;;;;;4974889;28;20030;-65
2023/05/19 01:00:39;;;;;;;5.15;1.20;;;10.00;97.20;;;;;;4963600;28;20044;-65
2023/05/19 01:03:11;;;;;;;3.88;1.55;;;9.90;97.10;;;;;;4972380;28;20038;-65
2023/05/19 01:05:52;;;;;;;4.00;1.40;;;9.90;97.20;;;;;;4977061;28;20105;-65
2023/05/19 01:08:18;;;;;;;2.90;1.77;;;9.90;97.10;;;;;;4973031;28;20031;-65
2023/05/19 01:10:44;;;;;;;4.60;1.45;;;9.80;97.20;;;;;;4964249;28;20656;-65
2023/05/19 01:13:10;;;;;;;4.95;1.65;;;9.80;97.30;;;;;;4960912;28;20036;-65
2023/05/19 01:15:55;;;;;;;3.28;1.27;;;9.80;97.30;;;;;;4976521;28;20041;-65
2023/05/19 01:18:29;;;;;;;3.70;1.20;;;9.70;97.60;;;;;;4955408;28;20039;-65
2023/05/19 01:21:23;;;;;;;4.35;1.45;;;9.70;97.60;;;;;;4973488;28;20533;-65
2023/05/19 01:24:01;;;;;;;5.18;1.42;;;9.60;97.60;;;;;;4959058;28;20034;-65
2023/05/19 01:26:45;;;;;;;5.85;1.77;;;9.60;97.60;;;;;;4972473;28;20797;-67
2023/05/19 01:29:26;;;;;;;7.00;1.70;;;9.60;97.70;;;;;;4955805;28;20070;-65
2023/05/19 01:31:58;;;;;;;7.57;1.40;;;9.60;97.70;;;;;;4962491;28;20116;-65
2023/05/19 01:34:26;;;;;;;5.05;1.50;;;9.50;97.80;;;;;;4962141;28;20034;-65
2023/05/19 01:36:54;;;;;;;2.58;1.27;;;9.50;97.80;;;;;;4975591;28;20622;-65
2023/05/19 01:39:21;;;;;;;5.22;1.90;;;9.50;97.90;;;;;;4952647;28;20038;-66
2023/05/19 01:41:48;;;;;;;3.63;1.40;;;9.40;98.00;;;;;;4958567;28;20210;-65
2023/05/19 01:44:15;;;;;;;7.30;1.40;;;9.40;98.10;;;;;;4970797;28;20039;-65
2023/05/19 01:46:41;;;;;;;5.00;1.63;;;9.40;98.20;;;;;;4957762;28;20438;-65
2023/05/19 01:49:07;;;;;;;2.60;1.70;;;9.40;98.20;;;;;;4963923;28;20042;-66
2023/05/19 01:51:33;;;;;;;5.07;1.67;;;9.30;98.10;;;;;;4958687;28;20816;-65
2023/05/19 01:53:59;;;;;;;5.35;1.80;;;9.30;98.20;;;;;;4961575;28;20129;-66
2023/05/19 01:56:48;;;;;;;4.10;1.63;;;9.30;98.30;;;;;;4975221;28;20034;-65
2023/05/19 02:00:07;;;;;;;10.40;1.50;;;9.30;98.30;;;;;;4962642;28;20030;-65
2023/05/19 02:02:54;;;;;;;2.75;1.10;;;9.30;98.30;;;;;;4940010;28;20022;-66
2023/05/19 02:05:34;;;;;;;3.47;1.67;;;9.20;98.30;;;;;;4961461;28;20058;-65
2023/05/19 02:08:25;;;;;;;5.47;1.52;;;9.20;98.50;;;;;;4977286;28;20034;-65
2023/05/19 02:10:59;;;;;;;2.38;1.10;;;9.20;98.60;;;;;;4963541;28;20368;-67
2023/05/19 02:13:32;;;;;;;5.38;1.40;;;9.20;98.60;;;;;;4976391;28;20528;-65
2023/05/19 02:16:03;;;;;;;3.38;1.30;;;9.30;98.60;;;;;;4961421;28;20405;-65
2023/05/19 02:18:32;;;;;;;2.50;1.30;;;9.30;98.60;;;;;;4976305;28;20030;-65
2023/05/19 02:20:58;;;;;;;7.35;2.03;;;9.40;98.40;;;;;;4979307;28;20064;-65
2023/05/19 02:23:24;;;;;;;4.93;1.50;;;9.40;98.30;;;;;;4962193;28;20050;-66
2023/05/19 02:25:50;;;;;;;3.38;1.35;;;9.50;98.20;;;;;;4976241;28;20034;-66
2023/05/19 02:28:16;;;;;;;3.67;1.17;;;9.50;98.00;;;;;;4960779;28;20108;-65
2023/05/19 02:30:42;;;;;;;2.13;1.27;;;9.50;98.10;;;;;;4980937;28;20041;-65
2023/05/19 02:33:10;;;;;;;3.92;1.25;;;9.40;98.30;;;;;;4963991;28;20072;-65
2023/05/19 02:35:36;;;;;;;5.28;1.95;;;9.40;98.40;;;;;;4979013;28;20583;-65
2023/05/19 02:38:02;;;;;;;4.80;1.30;;;9.40;98.50;;;;;;4961826;28;20030;-66
2023/05/19 02:40:28;;;;;;;7.97;1.60;;;9.30;98.50;;;;;;4980952;28;20999;-66
2023/05/19 02:42:54;;;;;;;4.95;1.73;;;9.30;98.50;;;;;;4979713;28;20042;-65
2023/05/19 02:45:19;;;;;;;3.97;1.48;;;9.30;98.50;;;;;;4967274;28;20125;-65
2023/05/19 02:47:45;;;;;;;6.40;1.60;;;9.20;98.50;;;;;;4963735;28;20161;-66
2023/05/19 02:50:11;;;;;;;4.32;1.60;;;9.20;98.40;;;;;;4958941;28;20157;-65
2023/05/19 02:52:36;;;;;;;3.38;1.30;;;9.20;98.20;;;;;;4973444;28;20046;-65
2023/05/19 02:55:02;;;;;;;5.95;1.75;;;9.10;98.20;;;;;;4959171;28;20843;-66
2023/05/19 02:57:30;;;;;;;4.93;1.42;;;9.10;98.20;;;;;;4959248;28;20034;-65
2023/05/19 02:59:56;;;;;;;4.93;1.52;;;9.00;98.10;;;;;;4960209;28;20034;-65
2023/05/19 03:02:22;;;;;;;4.05;1.50;;;9.00;98.20;;;;;;4975297;28;20061;-65
2023/05/19 03:04:47;;;;;;;7.35;1.52;;;8.90;98.30;;;;;;4977202;28;20035;-65
2023/05/19 03:07:14;;;;;;;5.15;1.65;;;8.90;98.30;;;;;;4976157;28;20039;-65
2023/05/19 03:09:40;;;;;;;4.35;1.98;;;8.90;98.20;;;;;;4977850;28;20037;-65
2023/05/19 03:12:06;;;;;;;3.38;1.63;;;8.90;98.40;;;;;;4978111;28;20026;-65
2023/05/19 03:14:37;;;;;;;3.33;1.48;;;8.90;98.30;;;;;;4976197;28;20130;-65
2023/05/19 03:17:06;;;;;;;3.67;1.80;;;8.90;98.30;;;;;;4979536;28;20042;-65
2023/05/19 03:19:32;;;;;;;6.75;1.50;;;8.90;98.30;;;;;;4960611;28;20033;-65
2023/05/19 03:21:58;;;;;;;3.78;1.48;;;8.90;98.50;;;;;;4963163;28;20027;-65
2023/05/19 03:24:23;;;;;;;4.85;1.83;;;8.80;98.60;;;;;;4973021;28;20498;-65
2023/05/19 03:26:50;;;;;;;6.95;1.67;;;8.80;98.90;;;;;;4960889;28;20034;-65
2023/05/19 03:29:16;;;;;;;4.82;1.48;;;8.70;98.90;;;;;;4977286;28;20794;-65
2023/05/19 03:31:41;;;;;;;3.85;1.45;;;8.70;99.00;;;;;;4965553;28;20030;-65
2023/05/19 03:34:07;;;;;;;2.80;1.65;;;8.70;99.10;;;;;;4960109;28;20030;-65
2023/05/19 03:36:38;;;;;;;3.95;1.30;;;8.70;99.00;;;;;;4960559;28;20022;-65
2023/05/19 03:39:05;;;;;;;2.42;1.02;;;8.70;99.20;;;;;;4956716;28;20030;-65
2023/05/19 03:41:32;;;;;;;4.72;1.52;;;8.80;99.30;;;;;;4956963;28;20034;-65
2023/05/19 03:43:58;;;;;;;3.13;1.63;;;8.80;99.40;;;;;;4959296;28;20044;-65
2023/05/19 03:46:24;;;;;;;4.47;1.63;;;8.90;99.40;;;;;;4957700;28;20031;-65
2023/05/19 03:49:15;;;;;;;3.05;1.45;;;9.00;99.30;;;;;;4959858;28;20039;-65
2023/05/19 03:51:57;;;;;;;5.72;1.50;;;9.00;99.20;;;;;;4973009;28;20517;-65
2023/05/19 03:54:45;;;;;;;2.33;1.67;;;9.10;99.30;;;;;;4975843;28;20046;-65
2023/05/19 03:57:11;;;;;;;3.00;1.40;;;9.10;99.10;;;;;;4964477;28;20513;-65
2023/05/19 03:59:37;;;;;;;4.65;1.50;;;9.10;99.10;;;;;;4977348;28;20026;-68
2023/05/19 04:02:03;;;;;;;4.10;1.42;;;9.10;99.10;;;;;;4946802;28;20473;-68
2023/05/19 04:04:29;;;;;;;4.95;1.80;;;9.10;98.90;;;;;;4967845;28;20038;-69
2023/05/19 04:06:55;;;;;;;4.22;1.40;;;9.20;98.90;;;;;;4962075;28;20044;-67
2023/05/19 04:09:22;;;;;;;6.65;1.95;;;9.30;98.80;;;;;;4974171;28;20039;-66
2023/05/19 04:11:49;;;;;;;4.03;1.52;;;9.30;98.80;;;;;;4961192;28;20030;-68
2023/05/19 04:14:15;;;;;;;6.35;1.92;;;9.30;99.00;;;;;;4979116;28;20034;-67
2023/05/19 04:16:42;;;;;;;6.13;1.80;;;9.30;99.00;;;;;;4957234;28;20027;-68
2023/05/19 04:19:08;;;;;;;4.00;1.65;;;9.30;99.10;;;;;;4976599;28;20030;-67
2023/05/19 04:21:34;;;;;;;5.25;1.60;;;9.30;99.20;;;;;;4966451;28;20029;-66
2023/05/19 04:23:59;;;;;;;5.20;1.77;;;9.30;99.30;;;;;;4958696;28;20042;-68
2023/05/19 04:26:29;;;;;;;10.63;1.83;;;9.40;99.40;;;;;;4962910;28;20038;-68
2023/05/19 04:28:55;;;;;;;5.82;1.38;;;9.40;99.20;;;;;;4956220;28;20045;-68
2023/05/19 04:31:22;;;;;;;3.75;1.60;;;9.50;99.10;;;;;;4963956;28;20565;-68
2023/05/19 04:33:48;;;;;;;4.95;1.80;;;9.60;99.00;;;;;;4950177;28;20031;-67
2023/05/19 04:36:17;;;;;;;3.20;1.23;;;9.60;99.00;;;;;;4962227;28;20045;-68
2023/05/19 04:38:44;;;;;;;3.55;1.45;;;9.60;99.00;;;;;;4960763;28;20495;-68
2023/05/19 04:41:11;;;;;;;2.53;1.33;;;9.70;98.90;;;;;;4964279;28;20061;-67
2023/05/19 04:43:40;;;;;;;5.00;1.80;;;9.70;98.90;;;;;;4965119;28;20030;-68
2023/05/19 04:46:09;;;;;;;2.85;1.42;;;9.70;99.00;;;;;;4962833;28;20546;-68
2023/05/19 04:48:36;;;;;;;7.25;1.95;;;9.80;99.00;;;;;;4959563;28;20038;-66
2023/05/19 04:51:02;;;;;;;4.32;1.90;;;9.90;99.10;;;;;;4975245;28;20041;-67
2023/05/19 04:53:28;;;;;;;4.97;1.90;;;10.00;99.10;;;;;;4963738;28;20035;-68
2023/05/19 04:55:55;;;;;;;4.85;1.92;;;10.00;99.00;;;;;;4981310;28;20037;-67
2023/05/19 04:58:24;;;;;;;5.07;2.08;;;10.10;99.10;;;;;;4962241;28;20034;-68
2023/05/19 05:00:51;;;;;;;3.85;1.70;;;10.20;99.10;;;;;;4964132;28;20050;-68
2023/05/19 05:03:17;;;;;;;5.72;1.65;;;10.30;98.90;;;;;;4959427;28;20070;-66
2023/05/19 05:05:43;;;;;;;2.80;1.48;;;10.40;99.00;;;;;;4963102;28;20045;-67
2023/05/19 05:08:10;;;;;;;3.67;1.73;;;10.50;99.20;;;;;;4960983;28;20034;-67
2023/05/19 05:10:40;;;;;;;3.88;1.50;;;10.50;99.30;;;;;;4959413;28;20030;-68
2023/05/19 05:13:06;;;;;;;3.58;1.42;;;10.60;99.30;;;;;;4960257;28;20038;-67
2023/05/19 05:15:32;;;;;;;6.07;1.65;;;10.70;99.30;;;;;;4957797;28;20022;-67
2023/05/19 05:18:00;;;;;;;4.40;1.60;;;10.80;99.30;;;;;;4980703;28;20096;-67
2023/05/19 05:20:26;;;;;;;4.88;1.75;;;11.00;98.80;;;;;;4962975;28;20498;-68
2023/05/19 05:22:53;;;;;;;5.80;1.70;;;11.20;98.40;;;;;;4959671;28;20042;-68
2023/05/19 05:25:20;;;;;;;4.32;1.70;;;11.50;97.70;;;;;;4967831;28;20026;-68
2023/05/19 05:27:46;;;;;;;6.60;1.70;;;11.80;97.50;;;;;;4964097;28;20038;-68
2023/05/19 05:30:13;;;;;;;4.25;1.67;;;12.20;97.40;;;;;;4966142;28;20145;-67
2023/05/19 05:32:39;;;;;;;4.18;1.33;;;12.60;97.00;;;;;;4967933;28;20029;-68
2023/05/19 05:35:11;;;;;;;3.95;1.35;;;12.90;95.70;;;;;;4963840;28;20026;-69
2023/05/19 05:37:37;;;;;;;2.85;1.67;;;13.20;92.90;;;;;;4972700;28;20027;-67
2023/05/19 05:40:05;;;;;;;2.65;1.55;;;13.40;91.90;;;;;;4962372;28;20041;-68
2023/05/19 05:42:32;;;;;;;5.35;1.48;;;13.60;91.30;;;;;;4963640;28;20030;-67
2023/05/19 05:44:57;;;;;;;3.45;1.40;;;13.80;91.50;;;;;;4961314;28;20737;-67
2023/05/19 05:47:23;;;;;;;3.30;1.77;;;14.00;91.60;;;;;;4964091;28;20039;-68
2023/05/19 05:49:50;;;;;;;3.58;1.30;;;14.30;91.20;;;;;;4968141;28;20410;-68
2023/05/19 05:52:19;;;;;;;2.75;1.60;;;14.60;91.20;;;;;;4977842;28;20037;-68
2023/05/19 05:54:47;;;;;;;4.32;1.77;;;14.80;90.60;;;;;;4962367;28;20042;-69
2023/05/19 05:57:16;;;;;;;4.68;1.77;;;15.00;87.60;;;;;;4950939;28;20165;-69
2023/05/19 05:59:45;;;;;;;4.43;1.70;;;15.00;84.60;;;;;;4959236;28;20121;-68
2023/05/19 06:02:11;;;;;;;5.95;1.83;;;15.10;84.30;;;;;;4966857;28;20026;-67
2023/05/19 06:04:39;;;;;;;7.22;1.92;;;15.20;84.30;;;;;;4963265;28;20058;-67
2023/05/19 06:07:05;;;;;;;3.65;1.63;;;15.30;83.00;;;;;;4963817;28;20030;-68
2023/05/19 06:09:34;;;;;;;3.10;1.65;;;15.40;82.50;;;;;;4960266;28;20431;-68
2023/05/19 06:12:01;;;;;;;3.65;1.80;;;15.40;82.80;;;;;;4964310;28;20772;-67
2023/05/19 06:14:32;;;;;;;6.80;2.35;;;15.50;82.50;;;;;;4964433;28;20031;-68
2023/05/19 06:17:36;;;;;;;4.72;2.17;;;15.70;82.70;;;;;;4911631;29;20032;-69
2023/05/19 06:20:07;;;;;;;9.70;2.35;;;15.90;81.70;;;;;;4953379;28;20038;-68
2023/05/19 06:22:33;;;;;;;5.15;1.73;;;15.80;81.80;;;;;;4960044;28;20027;-68
2023/05/19 06:25:00;;;;;;;10.63;2.30;;;15.80;80.20;;;;;;4961353;28;20855;-68
2023/05/19 06:27:26;;;;;;;4.35;1.83;;;15.80;80.60;;;;;;4960164;28;20042;-68
2023/05/19 06:29:52;;;;;;;3.95;1.75;;;15.80;80.80;;;;;;4962310;28;20065;-67
2023/05/19 06:32:19;;;;;;;5.90;1.92;;;15.80;79.40;;;;;;4960143;28;20038;-68
2023/05/19 06:34:52;;;;;;;5.63;2.15;;;15.80;80.10;;;;;;4954930;28;20043;-67
2023/05/19 06:37:20;;;;;;;3.30;1.83;;;15.80;79.20;;;;;;4963322;28;20110;-70
2023/05/19 06:39:48;;;;;;;4.05;1.90;;;15.90;79.60;;;;;;4964810;28;20062;-69
2023/05/19 06:42:14;;;;;;;4.40;1.90;;;15.90;80.10;;;;;;4975564;28;20169;-68
2023/05/19 06:44:51;;;;;;;5.22;2.30;;;15.90;78.40;;;;;;4960519;28;20038;-67
2023/05/19 06:47:17;;;;;;;4.30;2.03;;;16.00;79.70;;;;;;4955786;28;20070;-68
2023/05/19 06:49:43;;;;;;;3.25;1.95;;;16.00;79.50;;;;;;4957930;28;20034;-69
2023/05/19 06:52:09;;;;;;;5.30;1.95;;;16.10;78.60;;;;;;4960188;28;20042;-69
2023/05/19 06:54:35;;;;;;;3.53;1.85;;;16.20;77.80;;;;;;4966281;28;20395;-68
2023/05/19 06:57:01;;;;;;;4.93;1.67;;;16.40;78.00;;;;;;4965829;28;20118;-68
2023/05/19 06:59:27;;;;;;;3.88;1.77;;;16.50;76.10;;;;;;4979403;28;20113;-68
2023/05/19 07:01:53;;;;;;;6.53;2.00;;;16.60;75.00;;;;;;4981700;28;20038;-67
2023/05/19 07:04:18;;;;;;;4.95;2.05;;;16.80;75.00;;;;;;4974583;28;20035;-69
2023/05/19 07:06:44;;;;;;;3.38;1.95;;;17.00;74.70;;;;;;4982887;28;20057;-69
2023/05/19 07:09:10;;;;;;;4.38;2.03;;;17.10;74.70;;;;;;4961039;28;20636;-69
2023/05/19 07:11:37;;;;;;;5.00;1.85;;;17.20;73.40;;;;;;4961519;28;20031;-68
2023/05/19 07:14:04;;;;;;;5.80;1.73;;;17.20;73.90;;;;;;4964397;28;20100;-68
2023/05/19 07:16:31;;;;;;;3.70;1.90;;;17.20;74.50;;;;;;4960795;28;20030;-68
2023/05/19 07:18:56;;;;;;;5.20;1.90;;;17.10;75.50;;;;;;4977561;28;20458;-68
2023/05/19 07:21:22;;;;;;;5.15;1.63;;;17.10;74.10;;;;;;4958918;28;20121;-68
2023/05/19 07:23:49;;;;;;;4.53;2.00;;;17.20;74.40;;;;;;4956546;28;20042;-69
2023/05/19 07:26:15;;;;;;;4.10;1.80;;;17.20;75.00;;;;;;4961319;28;20137;-68
2023/05/19 07:28:42;;;;;;;4.28;2.08;;;17.30;74.00;;;;;;4976462;28;20136;-68
2023/05/19 07:31:08;;;;;;;4.80;1.50;;;17.30;72.90;;;;;;4982885;28;20030;-67
2023/05/19 07:33:34;;;;;;;4.25;1.42;;;17.40;71.50;;;;;;4982338;28;20506;-66
2023/05/19 07:36:00;;;;;;;6.47;2.65;;;17.40;72.80;;;;;;4974889;28;20062;-66
2023/05/19 07:38:27;;;;;;;5.28;2.00;;;17.40;71.00;;;;;;4978419;28;20473;-67
2023/05/19 07:40:53;;;;;;;4.60;1.50;;;17.40;71.30;;;;;;4974032;28;20038;-65
2023/05/19 07:43:19;;;;;;;2.53;1.42;;;17.40;70.60;;;;;;4978623;28;20712;-66
2023/05/19 07:45:44;;;;;;;3.63;1.63;;;17.50;70.80;;;;;;4981783;28;20640;-66
2023/05/19 07:48:10;;;;;;;6.25;1.52;;;17.50;70.90;;;;;;4974991;28;20561;-66
2023/05/19 07:50:36;;;;;;;3.90;1.70;;;17.60;70.10;;;;;;4983116;28;20124;-65
2023/05/19 07:53:02;;;;;;;6.15;1.60;;;17.70;69.50;;;;;;4978682;28;20039;-64
2023/05/19 07:55:27;;;;;;;5.32;1.90;;;17.70;70.20;;;;;;4981359;28;20038;-65
2023/05/19 07:57:53;;;;;;;3.63;1.80;;;17.60;69.60;;;;;;4974592;28;20091;-65
2023/05/19 08:00:19;;;;;;;3.15;1.42;;;17.70;70.90;;;;;;4974542;28;20027;-66
2023/05/19 08:02:45;;;;;;;2.30;1.45;;;17.80;70.50;;;;;;4980606;28;20505;-66
2023/05/19 08:05:11;;;;;;;2.88;1.60;;;18.00;69.60;;;;;;4973859;28;20191;-66
2023/05/19 08:07:43;;;;;;;2.83;1.50;;;18.30;68.90;;;;;;5118106;27;20777;-65
2023/05/19 08:10:09;;;;;;;1.98;1.50;;;18.50;67.20;;;;;;5102356;28;20116;-65
2023/05/19 08:12:35;;;;;;;2.75;1.60;;;18.70;65.80;;;;;;5102110;28;20844;-65
2023/05/19 08:15:01;;;;;;;3.78;1.88;;;18.90;65.40;;;;;;5105230;28;20039;-64
2023/05/19 08:17:27;;;;;;;4.93;1.60;;;19.00;65.50;;;;;;5097470;27;20404;-66
2023/05/19 08:19:52;;;;;;;4.15;1.80;;;18.90;62.20;;;;;;5102657;28;20028;-64
2023/05/19 08:22:18;;;;;;;4.47;1.80;;;19.00;63.00;;;;;;5106453;28;20023;-66
2023/05/19 08:24:44;;;;;;;4.05;1.80;;;19.10;62.60;;;;;;5099962;28;20445;-66
2023/05/19 08:27:10;;;;;;;2.63;1.30;;;19.10;61.60;;;;;;5098263;28;20039;-68
2023/05/19 08:29:37;;;;;;;2.78;1.45;;;19.20;60.80;;;;;;5106679;28;20035;-68
2023/05/19 08:32:04;;;;;;;3.30;1.60;;;19.20;61.80;;;;;;5094128;28;20046;-68
2023/05/19 08:34:29;;;;;;;4.55;1.90;;;19.30;61.80;;;;;;5101862;27;20040;-68
2023/05/19 08:36:56;;;;;;;2.83;1.70;;;19.50;62.20;;;;;;5097397;28;20876;-69
2023/05/19 08:39:25;;;;;;;6.80;1.50;;;19.50;61.80;;;;;;5098278;28;20476;-68
2023/05/19 08:41:52;;;;;;;4.72;1.85;;;19.60;62.60;;;;;;5097127;28;20031;-68
2023/05/19 08:44:18;;;;;;;3.97;1.70;;;19.60;61.80;;;;;;5101889;28;20055;-68
2023/05/19 08:46:48;;;;;;;3.17;1.40;;;19.60;60.20;;;;;;5096475;28;20114;-68
2023/05/19 08:49:17;;;;;;;4.47;1.90;;;19.80;60.80;;;;;;5100728;28;20421;-67
2023/05/19 08:51:54;;;;;;;6.47;1.80;;;19.90;60.20;;;;;;5096880;28;20057;-68
2023/05/19 08:54:24;;;;;;;7.97;2.05;;;20.10;61.00;;;;;;5096462;28;20031;-67
2023/05/19 08:56:50;;;;;;;4.47;2.10;;;20.10;59.80;;;;;;5099470;28;20032;-68
2023/05/19 08:59:16;;;;;;;3.38;1.52;;;20.00;59.80;;;;;;5098528;28;20692;-68
2023/05/19 09:01:46;;;;;;;3.15;1.75;;;20.00;60.40;;;;;;5097063;28;20043;-68
2023/05/19 09:04:12;;;;;;;3.50;1.70;;;20.10;60.10;;;;;;5097952;28;20068;-67
2023/05/19 09:06:43;;;;;;;8.65;1.98;;;20.10;59.10;;;;;;5102782;28;20067;-68
2023/05/19 09:09:09;;;;;;;2.22;1.38;;;20.20;58.60;;;;;;5100808;28;20445;-69
2023/05/19 09:11:36;;;;;;;4.65;1.83;;;20.20;59.70;;;;;;5096473;28;20028;-68
2023/05/19 09:14:03;;;;;;;3.40;1.40;;;20.20;58.50;;;;;;5102177;28;20107;-69
2023/05/19 09:16:29;;;;;;;3.53;1.90;;;20.20;58.20;;;;;;5092756;28;20035;-68
2023/05/19 09:18:56;;;;;;;3.83;1.48;;;20.20;58.60;;;;;;5088863;28;21047;-69
2023/05/19 09:21:29;;;;;;;3.38;1.13;;;20.00;57.30;;;;;;5086247;28;20437;-68
2023/05/19 09:23:57;;;;;;;3.70;1.58;;;19.80;57.10;;;;;;5084125;28;20847;-66
2023/05/19 09:26:23;;;;;;;3.30;1.48;;;19.80;56.70;;;;;;5085935;28;20772;-66
2023/05/19 09:28:49;;;;;;;4.10;1.35;;;19.70;56.30;;;;;;5088453;28;20042;-64
2023/05/19 09:31:15;;;;;;;2.80;1.30;;;19.90;58.00;;;;;;5086882;28;20024;-67
2023/05/19 09:33:42;;;;;;;2.03;1.45;;;20.00;58.30;;;;;;5084286;28;20032;-68
2023/05/19 09:36:09;;;;;;;1.83;1.27;;;20.40;58.20;;;;;;5089988;28;20028;-67
2023/05/19 09:38:36;;;;;;;2.13;1.30;;;20.70;56.60;;;;;;5081039;28;20032;-68
2023/05/19 09:41:04;;;;;;;2.30;1.33;;;20.90;55.20;;;;;;5091986;28;20048;-67
2023/05/19 09:43:32;;;;;;;3.22;1.33;;;21.10;55.50;;;;;;5080934;28;20085;-67
2023/05/19 09:46:04;;;;;;;3.65;1.30;;;21.30;55.50;;;;;;5081851;28;20130;-67
2023/05/19 09:48:30;;;;;;;2.20;1.17;;;21.50;55.30;;;;;;5089025;28;20043;-67
2023/05/19 09:50:56;;;;;;;3.45;1.20;;;21.50;53.60;;;;;;5084416;28;20044;-66
2023/05/19 09:53:24;;;;;;;4.82;1.10;;;21.60;54.50;;;;;;5089908;28;20115;-68
2023/05/19 09:55:55;;;;;;;2.35;1.10;;;21.70;53.60;;;;;;5082891;28;20033;-67
2023/05/19 09:58:21;;;;;;;2.17;1.10;;;21.60;52.10;;;;;;5088278;28;20046;-66
2023/05/19 10:00:48;;;;;;;3.72;1.55;;;21.60;51.70;;;;;;5084264;28;20150;-68
2023/05/19 10:03:15;;;;;;;3.65;1.20;;;21.60;52.90;;;;;;5078867;28;20036;-67
2023/05/19 10:05:41;;;;;;;2.38;1.10;;;21.50;52.90;;;;;;5087269;28;20142;-67
2023/05/19 10:08:09;;;;;;;1.58;1.00;;;21.30;52.20;;;;;;5081908;28;20035;-68
2023/05/19 10:10:37;;;;;;;2.10;1.33;;;21.20;52.00;;;;;;5085330;28;20017;-67
2023/05/19 10:13:04;;;;;;;2.38;1.10;;;21.10;52.60;;;;;;5081062;28;20086;-66
2023/05/19 10:15:30;;;;;;;1.90;1.20;;;21.10;52.50;;;;;;5085249;28;20036;-67
2023/05/19 10:17:56;;;;;;;4.85;1.08;;;21.10;51.20;;;;;;5083956;28;20507;-68
2023/05/19 10:20:22;;;;;;;1.85;0.93;;;21.00;52.10;;;;;;5090906;28;20273;-67
2023/05/19 10:22:48;;;;;;;1.50;1.02;;;21.00;51.50;;;;;;5085292;28;20028;-67
2023/05/19 10:25:17;;;;;;;2.45;0.70;;;21.00;50.90;;;;;;5084086;28;20052;-67
2023/05/19 10:28:00;;;;;;;1.65;1.05;;;20.90;51.20;;;;;;5080360;28;20060;-68
2023/05/19 10:30:30;;;;;;;1.45;0.90;;;20.70;49.80;;;;;;5081187;28;20180;-68
2023/05/19 10:32:59;;;;;;;2.55;1.10;;;20.60;50.30;;;;;;5082292;28;20036;-68
2023/05/19 10:35:49;;;;;;;1.95;1.10;;;20.60;52.30;;;;;;5079417;28;20077;-67
2023/05/19 10:38:47;;;;;;;2.40;1.00;;;21.00;50.00;;;;;;5084202;28;20124;-68
2023/05/19 10:41:23;;;;;;;1.88;1.10;;;21.30;49.80;;;;;;5079919;28;20126;-67
2023/05/19 10:44:26;;;;;;;1.15;1.05;;;21.60;50.30;;;;;;5088287;28;20039;-67
2023/05/19 10:46:52;;;;;;;1.52;0.90;;;21.80;50.70;;;;;;5081225;28;20128;-67
2023/05/19 10:49:21;;;;;;;1.83;1.23;;;22.00;49.90;;;;;;5091250;28;20420;-67
2023/05/19 10:51:48;;;;;;;2.78;1.00;;;21.90;46.00;;;;;;5082180;28;20081;-67
2023/05/19 10:54:15;;;;;;;1.20;1.08;;;21.70;46.70;;;;;;5080056;28;20051;-67
2023/05/19 10:56:46;;;;;;;4.40;1.20;;;21.60;48.70;;;;;;5076601;28;20085;-66
2023/05/19 10:59:36;;;;;;;1.10;0.80;;;21.50;49.50;;;;;;5085019;28;20065;-66
2023/05/19 11:02:05;;;;;;;4.15;1.17;;;21.70;48.90;;;;;;5081019;28;20031;-67
2023/05/19 11:04:45;;;;;;;1.38;1.02;;;21.80;49.10;;;;;;5083298;28;20032;-67
2023/05/19 11:07:19;;;;;;;1.17;0.90;;;21.60;48.80;;;;;;5081340;28;20894;-67
2023/05/19 11:09:50;;;;;;;1.38;0.80;;;21.40;49.50;;;;;;5084676;28;20083;-67
2023/05/19 11:12:20;;;;;;;2.60;1.00;;;21.20;49.40;;;;;;5087990;28;20092;-67
2023/05/19 11:14:46;;;;;;;2.85;1.30;;;21.20;49.70;;;;;;5081983;28;20496;-68
2023/05/19 11:17:14;;;;;;;2.72;0.95;;;21.30;49.00;;;;;;5084233;28;20039;-67
2023/05/19 11:19:54;;;;;;;3.80;1.10;;;21.40;49.50;;;;;;5076379;28;20089;-68
2023/05/19 11:22:24;;;;;;;2.17;0.70;;;21.40;49.10;;;;;;5082662;28;20059;-68
2023/05/19 11:24:53;;;;;;;2.47;1.00;;;21.30;48.20;;;;;;5081967;28;20032;-67
2023/05/19 11:27:32;;;;;;;1.58;1.00;;;21.30;49.40;;;;;;5079432;28;20028;-67
2023/05/19 11:30:05;;;;;;;2.22;1.42;;;21.40;49.10;;;;;;5077028;28;20131;-67
2023/05/19 11:32:33;;;;;;;1.65;1.15;;;21.40;49.70;;;;;;5080659;28;20111;-67
2023/05/19 11:35:00;;;;;;;2.75;1.00;;;21.30;49.60;;;;;;5086918;28;20023;-66
2023/05/19 11:37:27;;;;;;;2.08;1.42;;;21.30;50.00;;;;;;5082453;28;20391;-67
2023/05/19 11:39:53;;;;;;;1.85;1.00;;;21.40;50.10;;;;;;5087251;28;20039;-67
2023/05/19 11:42:19;;;;;;;1.10;1.00;;;21.50;49.30;;;;;;5081060;28;20035;-67
2023/05/19 11:44:45;;;;;;;1.77;0.70;;;21.40;47.80;;;;;;5085938;28;20101;-67
2023/05/19 11:47:16;;;;;;;2.97;1.20;;;21.30;48.50;;;;;;5084935;28;20043;-67
2023/05/19 11:49:53;;;;;;;4.28;1.00;;;21.10;49.30;;;;;;5080659;28;20085;-66
2023/05/19 11:52:23;;;;;;;1.10;1.00;;;21.00;49.60;;;;;;5084694;28;20028;-66
2023/05/19 11:54:49;;;;;;;1.38;1.00;;;21.00;50.10;;;;;;5074752;28;20036;-67
2023/05/19 11:57:15;;;;;;;1.70;1.02;;;21.00;49.50;;;;;;5078519;28;20051;-67
2023/05/19 11:59:44;;;;;;;1.95;0.80;;;21.00;49.70;;;;;;5080592;28;20485;-66
2023/05/19 12:02:21;;;;;;;1.20;0.80;;;21.00;49.50;;;;;;5086321;28;20035;-66
2023/05/19 12:04:50;;;;;;;1.55;1.00;;;21.10;49.90;;;;;;5080853;28;20069;-66
2023/05/19 12:07:18;;;;;;;2.38;0.88;;;20.90;49.00;;;;;;5082131;28;20036;-66
2023/05/19 12:09:48;;;;;;;1.60;0.90;;;20.90;51.30;;;;;;5090996;28;20071;-66
2023/05/19 12:12:21;;;;;;;1.45;1.00;;;20.90;49.80;;;;;;5080237;28;20118;-66
2023/05/19 12:14:49;;;;;;;2.22;1.17;;;20.90;49.60;;;;;;5080901;28;20093;-66
2023/05/19 12:17:17;;;;;;;3.00;1.20;;;20.90;49.80;;;;;;5079996;28;20040;-66
2023/05/19 12:19:43;;;;;;;2.10;1.13;;;20.90;48.80;;;;;;5081858;28;20043;-66
2023/05/19 12:22:10;;;;;;;2.10;1.02;;;21.00;50.00;;;;;;5083779;28;20046;-66
2023/05/19 12:24:37;;;;;;;1.88;0.85;;;21.00;49.10;;;;;;5083422;28;20090;-66
2023/05/19 12:27:27;;;;;;;1.83;0.90;;;20.80;49.00;;;;;;5081028;28;20851;-67
2023/05/19 12:29:55;;;;;;;1.50;0.90;;;20.70;49.50;;;;;;5079670;28;20105;-66
2023/05/19 12:32:26;;;;;;;3.38;0.80;;;20.70;49.30;;;;;;5085958;28;20055;-64
2023/05/19 12:34:54;;;;;;;1.92;1.20;;;20.60;49.00;;;;;;5077340;28;20028;-66
2023/05/19 12:37:20;;;;;;;2.33;1.02;;;20.60;49.80;;;;;;5085244;28;20035;-64
2023/05/19 12:39:48;;;;;;;5.15;0.90;;;20.60;50.70;;;;;;5080558;28;20217;-67
2023/05/19 12:42:15;;;;;;;3.00;1.00;;;20.60;49.80;;;;;;5080768;28;20082;-65
2023/05/19 12:44:46;;;;;;;3.83;1.02;;;20.70;50.60;;;;;;5077443;28;20035;-66
2023/05/19 12:47:13;;;;;;;1.45;0.80;;;20.70;49.70;;;;;;5081653;28;20032;-68
2023/05/19 12:49:57;;;;;;;1.88;0.88;;;20.70;49.00;;;;;;5077289;28;20036;-67
2023/05/19 12:52:24;;;;;;;2.83;1.20;;;20.80;49.80;;;;;;5088637;28;20032;-67
2023/05/19 12:54:58;;;;;;;2.90;0.90;;;20.70;48.90;;;;;;5085244;28;20024;-68
2023/05/19 12:57:25;;;;;;;2.90;2.38;;;20.60;49.70;;;;;;5088883;28;20049;-67
2023/05/19 12:59:51;;;;;;;1.42;1.10;;;20.60;51.10;;;;;;5080993;28;20071;-67